createdAt,value
2018-04-24T00:02:01.982Z,2.20
2018-04-24T00:04:31.192Z,2.27
2018-04-24T00:06:59.387Z,2.53
2018-04-24T00:09:26.833Z,2.17
2018-04-24T00:11:55.023Z,2.70
2018-04-24T00:14:22.459Z,2.90
2018-04-24T00:16:49.896Z,2.60
2018-04-24T00:19:18.094Z,2.40
2018-04-24T00:21:45.528Z,2.30
2018-04-24T00:24:13.721Z,2.33
2018-04-24T00:26:41.153Z,2.10
2018-04-24T00:29:09.363Z,2.53
2018-04-24T00:31:36.789Z,2.07
2018-04-24T00:34:04.994Z,2.40
2018-04-24T00:36:32.422Z,2.60
2018-04-24T00:39:00.623Z,2.27
2018-04-24T00:41:28.059Z,2.40
2018-04-24T00:43:56.260Z,2.43
2018-04-24T00:46:23.694Z,2.13
2018-04-24T00:48:51.128Z,2.50
2018-04-24T00:51:19.332Z,2.37
2018-04-24T00:53:46.780Z,3.07
2018-04-24T00:56:14.210Z,2.87
2018-04-24T00:58:42.402Z,2.67
2018-04-24T01:01:10.609Z,2.50
2018-04-24T01:03:38.041Z,2.60
2018-04-24T01:06:05.475Z,2.60
2018-04-24T01:08:33.685Z,2.50
2018-04-24T01:11:01.116Z,2.40
2018-04-24T01:13:28.563Z,2.63
2018-04-24T01:15:56.778Z,3.03
2018-04-24T01:18:24.204Z,2.77
2018-04-24T01:20:51.749Z,3.10
2018-04-24T01:23:19.958Z,3.13
2018-04-24T01:25:47.401Z,3.20
2018-04-24T01:28:14.833Z,2.70
2018-04-24T01:30:43.028Z,3.10
2018-04-24T01:33:10.472Z,3.30
2018-04-24T01:35:38.674Z,2.80
2018-04-24T01:38:06.106Z,2.73
2018-04-24T01:40:33.544Z,2.60
2018-04-24T01:43:01.750Z,3.23
2018-04-24T01:45:29.183Z,3.27
2018-04-24T01:47:57.383Z,3.07
2018-04-24T01:50:24.821Z,3.40
2018-04-24T01:52:52.253Z,2.57
2018-04-24T01:55:20.456Z,3.67
2018-04-24T01:57:47.884Z,3.00
2018-04-24T02:00:16.096Z,3.20
2018-04-24T02:02:43.529Z,2.90
2018-04-24T02:05:11.725Z,2.97
2018-04-24T02:07:39.164Z,2.53
2018-04-24T02:10:06.596Z,3.20
2018-04-24T02:12:34.805Z,2.90
2018-04-24T02:15:03.177Z,2.53
2018-04-24T02:17:30.606Z,2.73
2018-04-24T02:19:58.800Z,2.83
2018-04-24T02:22:26.236Z,2.37
2018-04-24T02:24:54.515Z,2.60
2018-04-24T02:27:21.873Z,2.73
2018-04-24T02:29:50.075Z,2.90
2018-04-24T02:32:17.505Z,3.00
2018-04-24T02:34:45.708Z,3.00
2018-04-24T02:37:13.142Z,2.60
2018-04-24T02:39:40.578Z,2.40
2018-04-24T02:42:08.773Z,2.80
2018-04-24T02:44:36.205Z,2.47
2018-04-24T02:47:04.415Z,3.00
2018-04-24T02:49:31.841Z,2.73
2018-04-24T02:52:00.044Z,2.80
2018-04-24T02:54:28.013Z,2.53
2018-04-24T02:56:55.453Z,2.40
2018-04-24T02:59:22.880Z,2.53
2018-04-24T03:01:50.313Z,2.77
2018-04-24T03:04:17.749Z,2.60
2018-04-24T03:06:45.187Z,2.83
2018-04-24T03:09:12.619Z,2.80
2018-04-24T03:11:40.831Z,3.07
2018-04-24T03:14:08.239Z,2.40
2018-04-24T03:16:36.445Z,2.40
2018-04-24T03:19:03.880Z,2.40
2018-04-24T03:21:31.320Z,2.60
2018-04-24T03:23:59.513Z,2.37
2018-04-24T03:26:27.725Z,2.57
2018-04-24T03:28:55.158Z,2.20
2018-04-24T03:31:22.594Z,2.40
2018-04-24T03:33:50.021Z,2.60
2018-04-24T03:36:17.458Z,2.30
2018-04-24T03:38:44.893Z,2.43
2018-04-24T03:41:12.326Z,2.30
2018-04-24T03:43:39.760Z,2.03
2018-04-24T03:46:07.961Z,2.10
2018-04-24T03:48:35.392Z,2.30
2018-04-24T03:51:03.584Z,2.40
2018-04-24T03:53:31.028Z,2.53
2018-04-24T03:55:59.231Z,2.27
2018-04-24T03:58:26.677Z,2.07
2018-04-24T04:00:54.108Z,1.97
2018-04-24T04:03:22.309Z,1.90
2018-04-24T04:05:49.736Z,2.23
2018-04-24T04:08:17.961Z,2.23
2018-04-24T04:10:45.378Z,2.30
2018-04-24T04:13:12.856Z,2.37
2018-04-24T04:15:40.301Z,1.83
2018-04-24T04:18:19.549Z,1.80
2018-04-24T04:20:58.944Z,2.50
2018-04-24T04:23:39.124Z,2.30
2018-04-24T04:26:06.598Z,2.37
2018-04-24T04:28:34.038Z,2.50
2018-04-24T04:31:01.464Z,1.80
2018-04-24T04:33:29.669Z,2.00
2018-04-24T04:35:57.104Z,2.60
2018-04-24T04:38:25.309Z,2.30
2018-04-24T04:40:52.740Z,2.20
2018-04-24T04:43:20.172Z,2.40
2018-04-24T04:45:48.367Z,2.43
2018-04-24T04:48:15.807Z,2.60
2018-04-24T04:50:44.231Z,2.40
2018-04-24T04:53:11.665Z,2.20
2018-04-24T04:55:39.093Z,2.60
2018-04-24T04:58:07.327Z,2.50
2018-04-24T05:00:34.758Z,2.33
2018-04-24T05:03:02.197Z,2.07
2018-04-24T05:05:29.637Z,2.10
2018-04-24T05:07:57.841Z,1.93
2018-04-24T05:10:25.272Z,2.10
2018-04-24T05:12:53.623Z,2.30
2018-04-24T05:15:21.043Z,2.20
2018-04-24T05:17:48.486Z,2.10
2018-04-24T05:20:15.922Z,2.43
2018-04-24T05:22:43.352Z,2.47
2018-04-24T05:25:10.796Z,2.47
2018-04-24T05:27:38.234Z,2.60
2018-04-24T05:30:06.864Z,2.50
2018-04-24T05:32:35.134Z,2.40
2018-04-24T05:35:03.054Z,2.50
2018-04-24T05:37:31.804Z,2.30
2018-04-24T05:39:59.294Z,2.43
2018-04-24T05:42:26.845Z,2.27
2018-04-24T05:44:54.272Z,1.87
2018-04-24T05:47:21.707Z,1.90
2018-04-24T05:49:49.909Z,2.23
2018-04-24T05:52:17.358Z,2.73
2018-04-24T05:54:45.553Z,2.30
2018-04-24T05:59:46.734Z,2.73
2018-04-24T06:02:14.160Z,2.80
2018-04-24T06:04:41.600Z,2.23
2018-04-24T06:07:09.788Z,2.00
2018-04-24T06:09:37.250Z,2.43
2018-04-24T06:12:04.676Z,1.97
2018-04-24T06:14:32.880Z,2.30
2018-04-24T06:17:00.313Z,2.03
2018-04-24T06:19:27.749Z,2.40
2018-04-24T06:21:55.945Z,2.40
2018-04-24T06:24:23.381Z,2.00
2018-04-24T06:26:51.588Z,2.23
2018-04-24T06:29:19.030Z,2.40
2018-04-24T06:31:46.465Z,2.40
2018-04-24T06:34:14.673Z,2.70
2018-04-24T06:36:42.112Z,2.20
2018-04-24T06:39:09.549Z,2.37
2018-04-24T06:41:37.749Z,2.27
2018-04-24T06:44:05.223Z,2.40
2018-04-24T06:46:32.644Z,2.10
2018-04-24T06:49:00.847Z,2.40
2018-04-24T06:51:28.289Z,2.17
2018-04-24T06:53:55.729Z,2.33
2018-04-24T06:56:23.927Z,2.43
2018-04-24T06:58:51.357Z,2.93
2018-04-24T07:01:19.573Z,2.40
2018-04-24T07:03:47.013Z,2.40
2018-04-24T07:06:14.477Z,2.57
2018-04-24T07:08:41.929Z,2.30
2018-04-24T07:11:09.373Z,2.80
2018-04-24T07:13:36.800Z,2.70
2018-04-24T07:16:05.005Z,2.60
2018-04-24T07:21:09.178Z,3.33
2018-04-24T07:23:36.618Z,2.90
2018-04-24T07:26:04.055Z,3.20
2018-04-24T07:28:31.495Z,2.30
2018-04-24T07:30:58.937Z,2.80
2018-04-24T07:33:27.137Z,2.60
2018-04-24T07:35:54.757Z,2.50
2018-04-24T07:38:22.190Z,2.40
2018-04-24T07:40:49.628Z,2.50
2018-04-24T07:43:17.071Z,2.33
2018-04-24T07:45:44.529Z,2.50
2018-04-24T07:48:11.964Z,2.40
2018-04-24T07:50:39.410Z,2.50
2018-04-24T07:53:07.608Z,2.70
2018-04-24T07:55:35.049Z,2.33
2018-04-24T07:58:02.481Z,2.10
2018-04-24T08:00:31.689Z,2.23
2018-04-24T08:03:00.167Z,2.13
2018-04-24T08:05:27.807Z,2.47
2018-04-24T08:07:56.033Z,2.97
2018-04-24T08:10:23.486Z,2.43
2018-04-24T08:12:50.924Z,2.97
2018-04-24T08:15:18.369Z,2.00
2018-04-24T08:17:46.560Z,3.30
2018-04-24T08:20:14.009Z,2.90
2018-04-24T08:22:41.446Z,3.90
2018-04-24T08:25:09.654Z,2.57
2018-04-24T08:27:37.094Z,2.63
2018-04-24T08:30:05.289Z,2.70
2018-04-24T08:32:32.729Z,2.97
2018-04-24T08:35:02.317Z,3.23
2018-04-24T08:37:29.793Z,2.50
2018-04-24T08:39:57.273Z,3.10
2018-04-24T08:42:25.433Z,3.20
2018-04-24T08:44:52.864Z,2.70
2018-04-24T08:47:21.993Z,3.20
2018-04-24T08:49:49.471Z,3.03
2018-04-24T08:52:18.924Z,3.10
2018-04-24T08:54:48.126Z,3.40
2018-04-24T08:57:16.325Z,2.40
2018-04-24T08:59:43.756Z,2.73
2018-04-24T09:02:11.197Z,2.53
2018-04-24T09:04:42.376Z,3.03
2018-04-24T09:07:09.859Z,3.03
2018-04-24T09:09:37.289Z,3.80
2018-04-24T09:12:04.733Z,2.43
2018-04-24T09:14:32.167Z,2.27
2018-04-24T09:17:00.373Z,3.10
2018-04-24T09:19:27.801Z,3.60
2018-04-24T09:21:56.017Z,2.83
2018-04-24T09:24:24.225Z,3.63
2018-04-24T09:26:51.746Z,3.50
2018-04-24T09:29:19.220Z,4.47
2018-04-24T09:31:46.696Z,4.00
2018-04-24T09:34:14.916Z,4.03
2018-04-24T09:36:42.369Z,3.03
2018-04-24T09:39:09.797Z,3.57
2018-04-24T09:41:38.001Z,2.87
2018-04-24T09:44:05.440Z,2.87
2018-04-24T09:46:32.876Z,3.67
2018-04-24T09:49:01.208Z,4.70
2018-04-24T09:51:28.525Z,4.40
2018-04-24T09:53:55.961Z,4.23
2018-04-24T09:56:24.172Z,4.20
2018-04-24T09:58:51.636Z,4.27
2018-04-24T10:01:19.072Z,4.73
2018-04-24T10:03:46.505Z,4.00
2018-04-24T10:06:14.718Z,3.90
2018-04-24T10:08:42.162Z,4.43
2018-04-24T10:11:09.605Z,4.50
2018-04-24T10:13:37.845Z,5.43
2018-04-24T10:16:05.253Z,4.30
2018-04-24T10:18:32.712Z,4.67
2018-04-24T10:21:00.145Z,3.83
2018-04-24T10:23:27.594Z,3.83
2018-04-24T10:25:55.786Z,3.97
2018-04-24T10:28:23.225Z,4.20
2018-04-24T10:30:51.426Z,3.80
2018-04-24T10:33:18.868Z,4.60
2018-04-24T10:35:46.296Z,4.10
2018-04-24T10:38:14.509Z,4.67
2018-04-24T10:40:41.946Z,4.10
2018-04-24T10:43:09.385Z,4.00
2018-04-24T10:45:37.596Z,3.47
2018-04-24T10:48:05.049Z,3.70
2018-04-24T10:50:32.472Z,3.50
2018-04-24T10:52:59.914Z,3.40
2018-04-24T10:55:27.346Z,3.00
2018-04-24T10:57:54.796Z,3.10
2018-04-24T11:00:22.236Z,2.83
2018-04-24T11:02:49.669Z,2.50
2018-04-24T11:05:17.110Z,3.10
2018-04-24T11:07:45.316Z,3.50
2018-04-24T11:10:12.748Z,3.20
2018-04-24T11:12:40.967Z,2.90
2018-04-24T11:15:08.400Z,2.90
2018-04-24T11:17:35.846Z,3.07
2018-04-24T11:20:03.277Z,2.80
2018-04-24T11:22:31.487Z,2.90
2018-04-24T11:24:58.918Z,3.27
2018-04-24T11:27:27.132Z,3.03
2018-04-24T11:29:54.633Z,2.93
2018-04-24T11:32:22.058Z,3.27
2018-04-24T11:34:49.505Z,2.93
2018-04-24T11:37:16.946Z,3.53
2018-04-24T11:39:44.398Z,3.63
2018-04-24T11:42:11.834Z,3.17
2018-04-24T11:44:40.044Z,2.97
2018-04-24T11:47:07.488Z,3.23
2018-04-24T11:49:34.965Z,2.80
2018-04-24T11:52:02.404Z,2.93
2018-04-24T11:54:29.962Z,2.80
2018-04-24T11:56:57.442Z,2.60
2018-04-24T11:59:25.597Z,2.70
2018-04-24T12:01:53.053Z,3.13
2018-04-24T12:04:20.493Z,3.00
2018-04-24T12:06:47.933Z,2.70
2018-04-24T12:09:16.144Z,2.57
2018-04-24T12:11:43.612Z,2.17
2018-04-24T12:14:11.066Z,2.13
2018-04-24T12:16:38.498Z,2.23
2018-04-24T12:19:05.940Z,2.73
2018-04-24T12:21:34.130Z,2.63
2018-04-24T12:24:01.576Z,2.63
2018-04-24T12:26:29.779Z,2.50
2018-04-24T12:28:58.147Z,2.40
2018-04-24T12:31:30.121Z,2.00
2018-04-24T12:34:00.482Z,2.57
2018-04-24T12:36:30.085Z,2.13
2018-04-24T12:38:59.029Z,2.50
2018-04-24T12:41:27.387Z,2.60
2018-04-24T12:43:56.706Z,2.80
2018-04-24T12:46:24.831Z,2.20
2018-04-24T12:48:52.311Z,2.70
2018-04-24T12:51:20.827Z,2.90
2018-04-24T12:53:48.519Z,2.50
2018-04-24T12:56:17.453Z,2.97
2018-04-24T12:58:44.919Z,2.60
2018-04-24T13:01:12.349Z,2.60
2018-04-24T13:03:40.553Z,2.10
2018-04-24T13:06:07.997Z,2.57
2018-04-24T13:08:35.434Z,2.30
2018-04-24T13:11:03.646Z,2.33
2018-04-24T13:13:31.084Z,2.20
2018-04-24T13:15:58.522Z,2.43
2018-04-24T13:18:26.776Z,2.60
2018-04-24T13:20:54.173Z,2.57
2018-04-24T13:23:21.605Z,2.50
2018-04-24T13:25:49.869Z,2.40
2018-04-24T13:28:17.254Z,2.17
2018-04-24T13:30:44.692Z,2.63
2018-04-24T13:33:12.912Z,2.77
2018-04-24T13:35:40.355Z,2.50
2018-04-24T13:38:07.787Z,2.30
2018-04-24T13:40:35.997Z,1.87
2018-04-24T13:43:03.442Z,2.20
2018-04-24T13:45:30.873Z,2.67
2018-04-24T13:47:59.081Z,2.93
2018-04-24T13:50:26.527Z,2.67
2018-04-24T13:52:53.963Z,2.80
2018-04-24T13:55:22.230Z,3.43
2018-04-24T13:57:49.612Z,2.60
2018-04-24T14:00:17.054Z,2.90
2018-04-24T14:02:45.248Z,2.60
2018-04-24T14:05:12.697Z,2.93
2018-04-24T14:07:40.131Z,2.77
2018-04-24T14:10:08.391Z,2.57
2018-04-24T14:12:35.820Z,2.63
2018-04-24T14:15:03.275Z,3.03
2018-04-24T14:17:30.709Z,3.80
2018-04-24T14:19:58.150Z,2.67
2018-04-24T14:22:25.589Z,3.10
2018-04-24T14:24:53.809Z,3.13
2018-04-24T14:27:21.318Z,3.20
2018-04-24T14:29:49.537Z,2.73
2018-04-24T14:32:16.969Z,2.73
2018-04-24T14:34:44.406Z,2.90
2018-04-24T14:37:13.606Z,2.43
2018-04-24T14:39:41.810Z,2.87
2018-04-24T14:42:09.255Z,3.00
2018-04-24T14:44:36.690Z,3.30
2018-04-24T14:47:04.901Z,3.30
2018-04-24T14:49:32.334Z,2.70
2018-04-24T14:51:59.776Z,3.80
2018-04-24T14:54:27.985Z,4.43
2018-04-24T14:56:55.431Z,5.00
2018-04-24T14:59:22.866Z,5.43
2018-04-24T15:01:51.073Z,5.10
2018-04-24T15:04:18.505Z,4.30
2018-04-24T15:06:45.950Z,3.70
2018-04-24T15:09:14.145Z,4.60
2018-04-24T15:11:41.584Z,5.30
2018-04-24T15:14:09.786Z,5.27
2018-04-24T15:16:37.234Z,5.40
2018-04-24T15:19:04.661Z,5.27
2018-04-24T15:21:32.869Z,5.60
2018-04-24T15:24:00.301Z,4.83
2018-04-24T15:26:28.512Z,5.07
2018-04-24T15:28:55.960Z,5.83
2018-04-24T15:31:23.401Z,5.27
2018-04-24T15:33:50.837Z,5.73
2018-04-24T15:36:19.130Z,5.80
2018-04-24T15:38:46.489Z,5.90
2018-04-24T15:41:13.934Z,6.90
2018-04-24T15:43:41.386Z,5.67
2018-04-24T15:46:09.598Z,6.90
2018-04-24T15:48:37.033Z,6.00
2018-04-24T15:51:04.473Z,5.93
2018-04-24T15:53:32.681Z,6.00
2018-04-24T15:56:00.139Z,5.23
2018-04-24T15:58:27.569Z,6.43
2018-04-24T16:00:55.000Z,5.53
2018-04-24T16:03:23.213Z,5.70
2018-04-24T16:05:50.650Z,5.67
2018-04-24T16:08:18.867Z,5.80
2018-04-24T16:10:46.326Z,6.10
2018-04-24T16:13:13.765Z,7.20
2018-04-24T16:15:41.198Z,6.17
2018-04-24T16:18:08.647Z,6.73
2018-04-24T16:20:36.845Z,6.07
2018-04-24T16:23:04.299Z,6.63
2018-04-24T16:25:31.737Z,5.37
2018-04-24T16:27:59.229Z,6.27
2018-04-24T16:30:26.665Z,5.30
2018-04-24T16:32:54.108Z,6.03
2018-04-24T16:35:21.537Z,5.33
2018-04-24T16:37:49.748Z,5.77
2018-04-24T16:40:17.177Z,5.90
2018-04-24T16:42:45.385Z,6.53
2018-04-24T16:45:12.841Z,6.37
2018-04-24T16:47:40.301Z,6.60
2018-04-24T16:50:07.737Z,6.57
2018-04-24T16:52:35.182Z,5.40
2018-04-24T16:55:03.379Z,6.03
2018-04-24T16:57:30.813Z,6.70
2018-04-24T16:59:59.017Z,7.60
2018-04-24T17:02:26.452Z,5.60
2018-04-24T17:04:53.891Z,4.57
2018-04-24T17:07:22.101Z,4.90
2018-04-24T17:09:49.536Z,6.13
2018-04-24T17:12:17.746Z,5.53
2018-04-24T17:14:45.180Z,5.57
2018-04-24T17:17:12.617Z,5.53
2018-04-24T17:19:40.816Z,4.93
2018-04-24T17:22:09.026Z,4.50
2018-04-24T17:24:36.452Z,4.03
2018-04-24T17:27:03.894Z,5.00
2018-04-24T17:29:31.341Z,4.30
2018-04-24T17:31:58.774Z,4.30
2018-04-24T17:34:26.985Z,3.77
2018-04-24T17:36:54.421Z,3.27
2018-04-24T17:39:22.954Z,2.90
2018-04-24T17:41:51.717Z,3.83
2018-04-24T17:44:20.341Z,2.90
2018-04-24T17:46:47.999Z,3.47
2018-04-24T17:49:16.697Z,3.47
2018-04-24T17:51:44.382Z,3.50
2018-04-24T17:54:12.055Z,2.87
2018-04-24T17:56:39.737Z,3.10
2018-04-24T17:59:07.385Z,2.30
2018-04-24T18:01:35.208Z,2.23
2018-04-24T18:04:02.733Z,2.73
2018-04-24T18:06:30.170Z,2.50
2018-04-24T18:08:57.617Z,2.37
2018-04-24T18:11:25.122Z,1.90
2018-04-24T18:13:53.296Z,2.33
2018-04-24T18:16:20.736Z,2.50
2018-04-24T18:18:48.172Z,2.33
2018-04-24T18:21:15.613Z,1.97
2018-04-24T18:23:43.055Z,1.90
2018-04-24T18:26:11.252Z,2.10
2018-04-24T18:28:38.707Z,1.80
2018-04-24T18:31:06.131Z,2.03
2018-04-24T18:33:34.359Z,1.93
2018-04-24T18:36:01.795Z,2.37
2018-04-24T18:38:29.241Z,2.30
2018-04-24T18:40:56.676Z,2.77
2018-04-24T18:43:25.878Z,3.03
2018-04-24T18:45:54.075Z,2.90
2018-04-24T18:48:21.582Z,2.97
2018-04-24T18:50:49.013Z,2.67
2018-04-24T18:53:16.540Z,4.10
2018-04-24T18:55:43.905Z,3.23
2018-04-24T18:58:11.343Z,4.00
2018-04-24T19:00:38.785Z,3.40
2018-04-24T19:03:06.990Z,3.43
2018-04-24T19:05:34.424Z,4.40
2018-04-24T19:08:01.892Z,2.70
2018-04-24T19:10:29.329Z,3.70
2018-04-24T19:12:57.525Z,3.47
2018-04-24T19:15:24.964Z,2.80
2018-04-24T19:17:53.163Z,2.40
2018-04-24T19:20:20.606Z,2.97
2018-04-24T19:22:48.038Z,2.87
2018-04-24T19:25:21.917Z,2.20
2018-04-24T19:27:49.351Z,3.07
2018-04-24T19:30:16.800Z,2.63
2018-04-24T19:32:44.231Z,3.00
2018-04-24T19:35:11.684Z,2.27
2018-04-24T19:37:39.894Z,2.40
2018-04-24T19:40:12.914Z,1.87
2018-04-24T19:42:40.637Z,2.13
2018-04-24T19:45:08.197Z,1.77
2018-04-24T19:47:35.633Z,2.73
2018-04-24T19:50:08.752Z,2.67
2018-04-24T19:52:36.176Z,2.40
2018-04-24T19:55:09.173Z,2.27
2018-04-24T19:57:36.608Z,2.27
2018-04-24T20:00:04.053Z,2.40
2018-04-24T20:02:32.324Z,2.00
2018-04-24T20:04:59.773Z,1.63
2018-04-24T20:07:27.205Z,2.30
2018-04-24T20:09:54.650Z,2.30
2018-04-24T20:12:22.085Z,2.00
2018-04-24T20:14:49.535Z,2.30
2018-04-24T20:17:16.973Z,2.17
2018-04-24T20:19:45.177Z,2.30
2018-04-24T20:22:12.632Z,2.27
2018-04-24T20:24:40.085Z,2.27
2018-04-24T20:27:07.511Z,1.70
2018-04-24T20:29:35.830Z,2.27
2018-04-24T20:32:03.274Z,1.77
2018-04-24T20:34:30.731Z,2.10
2018-04-24T20:36:58.165Z,2.40
2018-04-24T20:39:25.606Z,1.90
2018-04-24T20:41:53.813Z,2.20
2018-04-24T20:44:21.253Z,2.57
2018-04-24T20:46:48.697Z,2.00
2018-04-24T20:49:16.905Z,1.90
2018-04-24T20:51:44.358Z,1.93
2018-04-24T20:54:11.797Z,2.27
2018-04-24T20:56:39.241Z,2.43
2018-04-24T20:59:07.441Z,2.13
2018-04-24T21:01:34.881Z,1.83
2018-04-24T21:04:02.333Z,2.23
2018-04-24T21:06:30.541Z,2.60
2018-04-24T21:08:57.978Z,2.30
2018-04-24T21:11:25.415Z,2.23
2018-04-24T21:13:53.634Z,1.93
2018-04-24T21:16:21.077Z,2.17
2018-04-24T21:18:48.518Z,2.40
2018-04-24T21:21:15.957Z,2.00
2018-04-24T21:23:44.151Z,2.17
2018-04-24T21:26:11.635Z,2.20
2018-04-24T21:28:39.789Z,1.80
2018-04-24T21:31:07.233Z,2.17
2018-04-24T21:33:34.660Z,1.90
2018-04-24T21:36:02.867Z,1.90
2018-04-24T21:38:30.301Z,2.30
2018-04-24T21:40:58.508Z,2.23
2018-04-24T21:43:25.937Z,2.40
2018-04-24T21:45:53.380Z,3.23
2018-04-24T21:48:21.583Z,2.30
2018-04-24T21:50:49.029Z,2.83
2018-04-24T21:53:16.466Z,2.60
2018-04-24T21:55:44.661Z,2.60
2018-04-24T21:58:12.100Z,3.20
2018-04-24T22:00:40.305Z,2.70
2018-04-24T22:03:07.749Z,3.43
2018-04-24T22:05:35.192Z,3.47
2018-04-24T22:08:03.420Z,2.90
2018-04-24T22:10:30.856Z,2.87
2018-04-24T22:12:58.302Z,2.87
2018-04-24T22:15:25.736Z,3.27
2018-04-24T22:17:53.181Z,3.63
2018-04-24T22:20:21.382Z,2.70
2018-04-24T22:22:48.828Z,3.00
2018-04-24T22:25:17.028Z,2.90
2018-04-24T22:27:44.469Z,3.20
2018-04-24T22:30:11.906Z,3.17
2018-04-24T22:32:40.119Z,3.20
2018-04-24T22:35:07.556Z,3.40
2018-04-24T22:37:34.984Z,2.60
2018-04-24T22:40:03.191Z,2.23
2018-04-24T22:42:30.628Z,2.80
2018-04-24T22:44:58.071Z,3.13
2018-04-24T22:47:26.293Z,2.67
2018-04-24T22:49:53.716Z,2.70
2018-04-24T22:52:21.187Z,2.80
2018-04-24T22:54:49.358Z,2.73
2018-04-24T22:57:16.805Z,2.77
2018-04-24T22:59:44.253Z,2.60
2018-04-24T23:02:11.706Z,3.27
2018-04-24T23:04:39.908Z,2.60
2018-04-24T23:07:07.360Z,2.87
2018-04-24T23:09:34.793Z,2.57
2018-04-24T23:12:14.741Z,2.40
2018-04-24T23:14:54.379Z,2.43
2018-04-24T23:17:34.520Z,2.40
2018-04-24T23:20:14.682Z,2.20
2018-04-24T23:22:42.893Z,2.80
2018-04-24T23:25:10.320Z,2.33
2018-04-24T23:27:37.760Z,2.20
2018-04-24T23:30:05.974Z,2.17
2018-04-24T23:32:33.419Z,2.20
2018-04-24T23:35:00.858Z,2.87
2018-04-24T23:37:29.057Z,2.60
2018-04-24T23:39:56.503Z,2.70
2018-04-24T23:42:26.581Z,2.70
2018-04-24T23:44:54.114Z,2.80
2018-04-24T23:47:21.547Z,2.37
2018-04-24T23:49:49.010Z,2.40
2018-04-24T23:52:16.449Z,2.80
2018-04-24T23:54:43.884Z,2.10
2018-04-24T23:57:12.085Z,2.07
2018-04-24T23:59:39.529Z,2.40
